createdAt,value
2018-07-04T00:01:17.777Z,67.90
2018-07-04T00:04:04.499Z,68.30
2018-07-04T00:06:52.026Z,68.60
2018-07-04T00:09:38.775Z,68.90
2018-07-04T00:12:25.395Z,68.70
2018-07-04T00:15:12.271Z,68.10
2018-07-04T00:17:59.865Z,67.60
2018-07-04T00:20:46.611Z,67.40
2018-07-04T00:23:33.281Z,67.30
2018-07-04T00:26:20.019Z,67.30
2018-07-04T00:29:06.714Z,66.90
2018-07-04T00:31:53.327Z,66.00
2018-07-04T00:34:40.829Z,65.70
2018-07-04T00:37:27.510Z,65.40
2018-07-04T00:40:14.246Z,65.20
2018-07-04T00:43:00.862Z,64.30
2018-07-04T00:45:47.527Z,63.60
2018-07-04T00:48:34.197Z,63.20
2018-07-04T00:51:20.996Z,63.10
2018-07-04T00:54:07.812Z,63.30
2018-07-04T00:56:55.303Z,63.50
2018-07-04T00:59:42.044Z,63.60
2018-07-04T01:02:29.354Z,63.80
2018-07-04T01:05:15.975Z,63.90
2018-07-04T01:08:02.668Z,64.20
2018-07-04T01:10:49.485Z,64.20
2018-07-04T01:13:36.930Z,64.20
2018-07-04T01:16:23.619Z,64.00
2018-07-04T01:19:10.223Z,63.70
2018-07-04T01:21:56.976Z,63.20
2018-07-04T01:24:43.590Z,62.40
2018-07-04T01:27:30.205Z,62.00
2018-07-04T01:30:16.953Z,61.80
2018-07-04T01:33:04.384Z,61.60
2018-07-04T01:35:51.706Z,61.50
2018-07-04T01:38:38.274Z,61.90
2018-07-04T01:41:25.118Z,62.50
2018-07-04T01:44:12.634Z,62.80
2018-07-04T01:46:59.227Z,63.20
2018-07-04T01:49:45.932Z,63.90
2018-07-04T01:52:32.708Z,64.00
2018-07-04T01:55:19.325Z,64.00
2018-07-04T01:58:05.941Z,64.00
2018-07-04T02:00:52.759Z,64.00
2018-07-04T02:03:39.663Z,63.90
2018-07-04T02:06:26.318Z,63.80
2018-07-04T02:09:12.904Z,63.50
2018-07-04T02:11:59.781Z,63.50
2018-07-04T02:14:46.556Z,63.60
2018-07-04T02:17:33.209Z,63.70
2018-07-04T02:20:19.886Z,64.40
2018-07-04T02:23:06.670Z,65.00
2018-07-04T02:25:53.522Z,65.70
2018-07-04T02:28:40.123Z,65.90
2018-07-04T02:31:26.864Z,66.30
2018-07-04T02:34:13.576Z,66.80
2018-07-04T02:37:00.090Z,67.30
2018-07-04T02:39:47.603Z,67.40
2018-07-04T02:42:34.248Z,68.10
2018-07-04T02:45:20.939Z,68.40
2018-07-04T02:48:08.455Z,68.90
2018-07-04T02:50:55.894Z,68.40
2018-07-04T02:53:42.653Z,68.20
2018-07-04T02:56:29.487Z,67.70
2018-07-04T02:59:16.402Z,67.70
2018-07-04T03:02:03.026Z,67.60
2018-07-04T03:04:49.904Z,67.40
2018-07-04T03:07:36.573Z,67.30
2018-07-04T03:10:23.111Z,67.60
2018-07-04T03:13:09.773Z,67.80
2018-07-04T03:15:56.429Z,67.90
2018-07-04T03:18:43.124Z,67.70
2018-07-04T03:21:29.735Z,67.70
2018-07-04T03:24:16.374Z,67.80
2018-07-04T03:27:03.081Z,68.60
2018-07-04T03:29:49.866Z,70.40
2018-07-04T03:32:36.470Z,69.90
2018-07-04T03:35:23.225Z,70.30
2018-07-04T03:38:10.033Z,69.70
2018-07-04T03:40:56.824Z,69.40
2018-07-04T03:43:43.441Z,69.40
2018-07-04T03:46:30.808Z,70.00
2018-07-04T03:49:17.569Z,69.70
2018-07-04T03:52:04.364Z,69.70
2018-07-04T03:54:51.049Z,70.10
2018-07-04T03:57:37.788Z,70.50
2018-07-04T04:00:25.114Z,70.60
2018-07-04T04:03:12.625Z,70.50
2018-07-04T04:05:59.391Z,70.80
2018-07-04T04:08:46.062Z,71.20
2018-07-04T04:11:32.748Z,71.30
2018-07-04T04:14:19.585Z,71.30
2018-07-04T04:17:07.090Z,70.70
2018-07-04T04:19:53.852Z,70.10
2018-07-04T04:22:40.457Z,69.60
2018-07-04T04:25:27.193Z,69.10
2018-07-04T04:28:13.929Z,68.70
2018-07-04T04:31:00.573Z,68.30
2018-07-04T04:33:47.354Z,67.80
2018-07-04T04:36:33.953Z,68.00
2018-07-04T04:39:21.475Z,67.90
2018-07-04T04:42:08.599Z,67.80
2018-07-04T04:44:55.949Z,67.90
2018-07-04T04:47:42.696Z,68.10
2018-07-04T04:50:29.448Z,67.90
2018-07-04T04:53:16.824Z,67.90
2018-07-04T04:56:03.328Z,68.10
2018-07-04T04:58:49.875Z,68.20
2018-07-04T05:01:37.453Z,68.30
2018-07-04T05:04:24.286Z,68.60
2018-07-04T05:07:10.806Z,68.60
2018-07-04T05:09:57.657Z,68.20
2018-07-04T05:12:44.448Z,68.50
2018-07-04T05:15:31.038Z,68.50
2018-07-04T05:18:18.427Z,68.50
2018-07-04T05:21:05.189Z,68.40
2018-07-04T05:23:51.927Z,68.60
2018-07-04T05:26:38.551Z,68.70
2018-07-04T05:29:25.367Z,68.40
2018-07-04T05:32:11.951Z,68.70
2018-07-04T05:34:58.675Z,68.70
2018-07-04T05:37:45.321Z,68.80
2018-07-04T05:40:32.107Z,68.90
2018-07-04T05:43:18.846Z,68.80
2018-07-04T05:46:05.675Z,68.60
2018-07-04T05:48:52.180Z,67.90
2018-07-04T05:51:38.929Z,67.30
2018-07-04T05:54:25.687Z,67.40
2018-07-04T05:57:12.513Z,67.00
2018-07-04T05:59:59.745Z,66.60
2018-07-04T06:02:46.665Z,65.90
2018-07-04T06:05:33.458Z,65.90
2018-07-04T06:08:20.194Z,66.40
2018-07-04T06:11:06.837Z,67.10
2018-07-04T06:13:53.676Z,66.60
2018-07-04T06:16:40.398Z,67.10
2018-07-04T06:19:27.103Z,66.50
2018-07-04T06:22:13.923Z,66.80
2018-07-04T06:25:00.671Z,66.60
2018-07-04T06:27:47.246Z,66.30
2018-07-04T06:30:33.894Z,66.60
2018-07-04T06:33:20.670Z,66.10
2018-07-04T06:36:07.263Z,66.40
2018-07-04T06:38:36.192Z,66.10
2018-07-04T06:41:04.217Z,66.60
2018-07-04T06:43:32.319Z,66.90
2018-07-04T06:46:00.408Z,66.90
2018-07-04T06:48:28.520Z,67.30
2018-07-04T06:50:56.603Z,67.20
2018-07-04T06:53:24.695Z,67.20
2018-07-04T06:55:52.786Z,67.30
2018-07-04T06:58:20.896Z,68.00
2018-07-04T07:00:48.983Z,67.60
2018-07-04T07:03:35.682Z,67.60
2018-07-04T07:06:22.383Z,67.90
2018-07-04T07:09:09.110Z,68.30
2018-07-04T07:11:55.800Z,68.50
2018-07-04T07:14:42.473Z,69.10
2018-07-04T07:17:29.269Z,69.10
2018-07-04T07:20:15.986Z,68.10
2018-07-04T07:23:02.568Z,67.50
2018-07-04T07:25:49.263Z,67.20
2018-07-04T07:28:35.821Z,66.70
2018-07-04T07:31:22.494Z,66.10
2018-07-04T07:34:09.292Z,65.70
2018-07-04T07:36:55.902Z,65.60
2018-07-04T07:39:42.835Z,65.10
2018-07-04T07:42:29.435Z,65.10
2018-07-04T07:45:16.143Z,65.50
2018-07-04T07:48:02.847Z,65.20
2018-07-04T07:50:49.458Z,65.40
2018-07-04T07:53:35.994Z,65.10
2018-07-04T07:56:22.623Z,65.00
2018-07-04T07:59:09.387Z,64.90
2018-07-04T08:01:56.846Z,64.60
2018-07-04T08:04:43.295Z,64.50
2018-07-04T08:07:30.011Z,64.50
2018-07-04T08:10:16.617Z,64.50
2018-07-04T08:13:03.213Z,64.10
2018-07-04T08:15:50.040Z,63.70
2018-07-04T08:18:37.592Z,63.60
2018-07-04T08:21:24.267Z,63.40
2018-07-04T08:24:10.937Z,63.50
2018-07-04T08:26:57.630Z,63.50
2018-07-04T08:29:44.422Z,63.80
2018-07-04T08:32:31.289Z,63.00
2018-07-04T08:35:17.768Z,61.30
2018-07-04T08:38:04.510Z,61.40
2018-07-04T08:40:51.338Z,61.10
2018-07-04T08:43:38.078Z,60.20
2018-07-04T08:46:25.417Z,59.80
2018-07-04T08:49:12.389Z,59.70
2018-07-04T08:51:59.237Z,58.20
2018-07-04T08:54:45.943Z,56.60
2018-07-04T08:57:32.574Z,57.00
2018-07-04T09:00:19.374Z,57.40
2018-07-04T09:03:06.743Z,57.30
2018-07-04T09:05:53.355Z,57.40
2018-07-04T09:08:40.127Z,56.90
2018-07-04T09:11:26.852Z,56.80
2018-07-04T09:14:14.377Z,54.10
2018-07-04T09:17:01.642Z,54.30
2018-07-04T09:19:48.493Z,54.20
2018-07-04T09:22:35.111Z,53.30
2018-07-04T09:25:22.172Z,54.60
2018-07-04T09:28:08.761Z,54.30
2018-07-04T09:30:55.533Z,54.50
2018-07-04T09:33:42.390Z,54.40
2018-07-04T09:36:29.167Z,54.40
2018-07-04T09:39:16.782Z,53.90
2018-07-04T09:42:03.594Z,53.70
2018-07-04T09:44:50.269Z,54.80
2018-07-04T09:47:36.953Z,54.80
2018-07-04T09:50:23.719Z,55.10
2018-07-04T09:53:10.253Z,55.70
2018-07-04T09:55:57.017Z,54.50
2018-07-04T09:58:43.767Z,54.70
2018-07-04T10:01:31.385Z,54.80
2018-07-04T10:04:18.212Z,54.10
2018-07-04T10:07:05.740Z,52.50
2018-07-04T10:09:53.012Z,52.70
2018-07-04T10:12:39.782Z,52.50
2018-07-04T10:15:26.581Z,52.40
2018-07-04T10:18:13.569Z,52.50
2018-07-04T10:21:00.301Z,53.10
2018-07-04T10:23:47.040Z,54.10
2018-07-04T10:26:33.629Z,54.10
2018-07-04T10:29:20.933Z,54.40
2018-07-04T10:32:07.546Z,53.90
2018-07-04T10:34:54.365Z,53.70
2018-07-04T10:37:41.178Z,52.80
2018-07-04T10:40:27.934Z,51.20
2018-07-04T10:43:14.591Z,49.70
2018-07-04T10:46:02.092Z,49.20
2018-07-04T10:51:30.090Z,49.50
2018-07-04T10:54:17.531Z,49.10
2018-07-04T10:57:04.238Z,49.20
2018-07-04T10:59:50.840Z,48.50
2018-07-04T11:02:37.640Z,47.30
2018-07-04T11:05:24.346Z,48.70
2018-07-04T11:08:11.177Z,47.50
2018-07-04T11:10:58.395Z,47.70
2018-07-04T11:13:45.187Z,45.30
2018-07-04T11:16:31.809Z,43.40
2018-07-04T11:19:18.546Z,43.90
2018-07-04T11:22:05.114Z,43.90
2018-07-04T11:24:51.947Z,41.90
2018-07-04T11:27:38.553Z,42.40
2018-07-04T11:30:25.170Z,42.40
2018-07-04T11:33:12.775Z,43.00
2018-07-04T11:35:59.518Z,44.90
2018-07-04T11:38:46.108Z,44.90
2018-07-04T11:41:33.539Z,45.50
2018-07-04T11:44:20.357Z,45.90
2018-07-04T11:46:48.456Z,46.00
2018-07-04T11:49:16.672Z,45.90
2018-07-04T11:54:13.719Z,45.90
2018-07-04T11:56:41.807Z,46.90
2018-07-04T11:59:09.895Z,47.70
2018-07-04T12:01:38.749Z,50.50
2018-07-04T12:04:25.588Z,54.10
2018-07-04T12:07:01.698Z,58.40
2018-07-04T12:09:30.536Z,65.90
2018-07-04T12:11:58.617Z,69.40
2018-07-04T12:14:27.449Z,71.50
2018-07-04T12:16:55.537Z,72.70
2018-07-04T12:19:23.623Z,71.30
2018-07-04T12:21:51.719Z,72.80
2018-07-04T12:24:19.834Z,78.60
2018-07-04T12:26:47.972Z,76.70
2018-07-04T12:29:16.044Z,76.60
2018-07-04T12:31:44.880Z,77.90
2018-07-04T12:34:12.985Z,75.10
2018-07-04T12:39:10.004Z,76.80
2018-07-04T12:41:38.081Z,78.10
2018-07-04T12:44:06.190Z,78.10
2018-07-04T12:46:34.439Z,77.00
2018-07-04T12:49:02.502Z,78.00
2018-07-04T12:51:30.604Z,77.00
2018-07-04T12:53:58.759Z,77.80
2018-07-04T12:56:45.535Z,78.20
2018-07-04T12:59:32.315Z,80.60
2018-07-04T13:02:19.040Z,80.20
2018-07-04T13:05:05.691Z,80.00
2018-07-04T13:07:52.591Z,79.50
2018-07-04T13:10:39.287Z,78.10
2018-07-04T13:13:25.785Z,79.80
2018-07-04T13:16:13.255Z,78.90
2018-07-04T13:19:00.046Z,77.80
2018-07-04T13:21:46.801Z,78.40
2018-07-04T13:27:14.602Z,78.70
2018-07-04T13:30:02.211Z,79.60
2018-07-04T13:32:49.026Z,79.20
2018-07-04T13:38:16.839Z,78.90
2018-07-04T13:41:04.319Z,77.10
2018-07-04T13:43:50.943Z,78.50
2018-07-04T13:46:37.578Z,78.30
2018-07-04T13:49:25.110Z,77.50
2018-07-04T13:52:11.767Z,75.30
2018-07-04T13:54:58.356Z,73.80
2018-07-04T13:57:45.135Z,72.10
2018-07-04T14:00:31.952Z,72.20
2018-07-04T14:03:19.624Z,71.90
2018-07-04T14:06:06.259Z,71.20
2018-07-04T14:08:53.111Z,71.90
2018-07-04T14:11:39.998Z,71.00
2018-07-04T14:14:26.525Z,68.10
2018-07-04T14:17:13.163Z,68.70
2018-07-04T14:19:59.898Z,67.00
2018-07-04T14:22:46.697Z,65.50
2018-07-04T14:25:33.479Z,63.50
2018-07-04T14:28:20.155Z,60.70
2018-07-04T14:31:06.898Z,61.50
2018-07-04T14:33:53.711Z,58.10
2018-07-04T14:36:40.560Z,58.20
2018-07-04T14:39:27.250Z,57.40
2018-07-04T14:42:13.938Z,56.50
2018-07-04T14:45:00.793Z,56.40
2018-07-04T14:47:47.442Z,53.20
2018-07-04T14:50:34.837Z,55.60
2018-07-04T14:53:21.684Z,56.30
2018-07-04T14:56:08.456Z,55.80
2018-07-04T14:58:55.184Z,52.90
2018-07-04T15:01:42.601Z,52.90
2018-07-04T15:04:29.506Z,54.60
2018-07-04T15:07:16.148Z,55.50
2018-07-04T15:10:03.557Z,55.20
2018-07-04T15:12:49.984Z,54.30
2018-07-04T15:15:36.611Z,55.70
2018-07-04T15:18:24.162Z,54.70
2018-07-04T15:21:10.865Z,52.90
2018-07-04T15:23:57.523Z,53.20
2018-07-04T15:26:44.262Z,54.50
2018-07-04T15:29:31.014Z,54.60
2018-07-04T15:32:18.541Z,54.80
2018-07-04T15:35:05.426Z,56.00
2018-07-04T15:37:52.123Z,56.70
2018-07-04T15:40:39.094Z,55.90
2018-07-04T15:43:26.692Z,56.40
2018-07-04T15:46:13.497Z,55.80
2018-07-04T15:49:00.327Z,55.30
2018-07-04T15:51:47.751Z,55.50
2018-07-04T15:54:34.639Z,55.30
2018-07-04T15:57:21.441Z,56.60
2018-07-04T16:00:08.991Z,57.20
2018-07-04T16:02:55.749Z,58.20
2018-07-04T16:05:42.535Z,58.90
2018-07-04T16:08:29.925Z,59.10
2018-07-04T16:11:16.691Z,60.90
2018-07-04T16:14:03.452Z,63.00
2018-07-04T16:19:32.193Z,58.50
2018-07-04T16:22:19.005Z,59.20
2018-07-04T16:25:06.364Z,59.50
2018-07-04T16:27:53.021Z,60.10
2018-07-04T16:30:39.733Z,58.80
2018-07-04T16:33:26.398Z,59.70
2018-07-04T16:36:12.993Z,59.40
2018-07-04T16:38:59.698Z,79.20
2018-07-04T16:41:47.264Z,89.20
2018-07-04T16:44:34.066Z,90.80
2018-07-04T16:47:20.560Z,85.50
2018-07-04T16:50:07.118Z,87.10
2018-07-04T16:52:53.920Z,84.30
2018-07-04T16:55:40.687Z,84.60
2018-07-04T16:58:27.263Z,79.30
2018-07-04T17:01:14.667Z,83.00
2018-07-04T17:04:01.233Z,76.60
2018-07-04T17:06:48.090Z,79.50
2018-07-04T17:09:34.832Z,80.30
2018-07-04T17:12:21.825Z,77.30
2018-07-04T17:15:08.622Z,75.00
2018-07-04T17:17:56.064Z,76.70
2018-07-04T17:20:42.983Z,76.10
2018-07-04T17:23:29.784Z,78.80
2018-07-04T17:26:16.456Z,77.10
2018-07-04T17:29:03.327Z,78.80
2018-07-04T17:31:50.764Z,80.60
2018-07-04T17:34:37.374Z,79.30
2018-07-04T17:37:24.289Z,79.00
2018-07-04T17:40:11.152Z,78.80
2018-07-04T17:42:57.985Z,76.90
2018-07-04T17:45:45.396Z,75.90
2018-07-04T17:48:32.320Z,77.20
2018-07-04T17:51:19.052Z,75.90
2018-07-04T17:54:05.718Z,75.30
2018-07-04T17:56:52.605Z,76.10
2018-07-04T17:59:39.197Z,74.40
2018-07-04T18:02:25.823Z,76.00
2018-07-04T18:05:12.547Z,75.50
2018-07-04T18:07:59.180Z,78.10
2018-07-04T18:10:45.773Z,79.60
2018-07-04T18:13:32.492Z,80.60
2018-07-04T18:16:19.914Z,76.80
2018-07-04T18:19:06.637Z,74.60
2018-07-04T18:21:54.361Z,71.70
2018-07-04T18:24:41.205Z,70.50
2018-07-04T18:27:27.722Z,72.50
2018-07-04T18:30:14.527Z,70.60
2018-07-04T18:33:01.289Z,71.00
2018-07-04T18:35:48.638Z,70.30
2018-07-04T18:38:35.396Z,68.70
2018-07-04T18:41:22.137Z,68.60
2018-07-04T18:44:09.841Z,67.10
2018-07-04T18:46:56.640Z,68.00
2018-07-04T18:49:43.383Z,68.40
2018-07-04T18:52:31.379Z,68.00
2018-07-04T18:55:17.994Z,69.30
2018-07-04T18:58:04.624Z,70.10
2018-07-04T19:00:51.327Z,70.70
2018-07-04T19:03:37.990Z,71.60
2018-07-04T19:06:24.776Z,71.40
2018-07-04T19:09:11.453Z,72.50
2018-07-04T19:11:58.116Z,71.00
2018-07-04T19:14:44.935Z,72.00
2018-07-04T19:17:31.706Z,71.50
2018-07-04T19:20:18.956Z,72.50
2018-07-04T19:23:05.722Z,70.80
2018-07-04T19:25:52.610Z,69.00
2018-07-04T19:28:39.313Z,68.50
2018-07-04T19:31:25.799Z,66.50
2018-07-04T19:34:12.503Z,66.60
2018-07-04T19:36:59.366Z,65.90
2018-07-04T19:39:45.974Z,67.10
2018-07-04T19:42:33.472Z,65.70
2018-07-04T19:45:20.249Z,66.90
2018-07-04T19:48:07.196Z,65.90
2018-07-04T19:50:53.848Z,69.70
2018-07-04T19:53:40.615Z,74.90
2018-07-04T19:56:27.461Z,78.90
2018-07-04T19:59:14.330Z,78.80
2018-07-04T20:02:00.961Z,79.10
2018-07-04T20:04:47.816Z,79.30
2018-07-04T20:07:34.643Z,80.20
2018-07-04T20:10:22.300Z,82.60
2018-07-04T20:13:08.921Z,83.30
2018-07-04T20:15:55.550Z,83.30
2018-07-04T20:18:42.215Z,83.80
2018-07-04T20:21:29.711Z,83.70
2018-07-04T20:24:16.338Z,84.50
2018-07-04T20:27:04.093Z,85.00
2018-07-04T20:29:51.357Z,85.50
2018-07-04T20:32:37.932Z,85.80
2018-07-04T20:35:24.630Z,85.00
2018-07-04T20:38:11.248Z,84.40
2018-07-04T20:40:57.946Z,85.10
2018-07-04T20:43:44.556Z,85.60
2018-07-04T20:46:31.339Z,84.70
2018-07-04T20:49:18.161Z,85.40
2018-07-04T20:52:05.710Z,85.80
2018-07-04T20:54:52.510Z,85.90
2018-07-04T20:57:39.250Z,86.30
2018-07-04T21:00:25.985Z,85.50
2018-07-04T21:03:13.790Z,84.90
2018-07-04T21:08:41.881Z,85.50
2018-07-04T21:14:10.109Z,85.30
2018-07-04T21:16:56.878Z,85.10
2018-07-04T21:19:43.744Z,85.70
2018-07-04T21:22:31.286Z,84.50
2018-07-04T21:25:17.891Z,84.30
2018-07-04T21:28:04.901Z,85.00
2018-07-04T21:30:52.364Z,86.10
2018-07-04T21:33:39.114Z,86.20
2018-07-04T21:36:25.648Z,85.20
2018-07-04T21:39:13.138Z,85.20
2018-07-04T21:41:59.981Z,86.00
2018-07-04T21:44:47.380Z,86.30
2018-07-04T21:47:34.029Z,86.80
2018-07-04T21:50:20.850Z,87.00
2018-07-04T21:53:07.447Z,86.80
2018-07-04T21:55:54.150Z,86.50
2018-07-04T21:58:40.750Z,86.50
2018-07-04T22:01:27.581Z,86.50
2018-07-04T22:04:14.628Z,86.60
2018-07-04T22:07:01.102Z,86.50
2018-07-04T22:09:48.762Z,86.70
2018-07-04T22:12:35.533Z,86.60
2018-07-04T22:15:22.345Z,87.30
2018-07-04T22:18:09.666Z,86.80
2018-07-04T22:20:56.588Z,86.70
2018-07-04T22:23:44.229Z,87.90
2018-07-04T22:26:31.634Z,87.30
2018-07-04T22:29:18.438Z,88.20
2018-07-04T22:32:05.147Z,88.30
2018-07-04T22:34:51.858Z,87.60
2018-07-04T22:37:38.340Z,87.70
2018-07-04T22:40:25.092Z,88.30
2018-07-04T22:43:11.890Z,88.40
2018-07-04T22:45:58.742Z,88.50
2018-07-04T22:48:45.579Z,89.00
2018-07-04T22:51:32.335Z,89.50
2018-07-04T22:54:18.978Z,89.80
2018-07-04T22:57:05.583Z,89.40
2018-07-04T22:59:52.177Z,89.80
2018-07-04T23:02:38.936Z,89.40
2018-07-04T23:05:26.472Z,89.50
2018-07-04T23:08:13.727Z,89.40
2018-07-04T23:11:00.456Z,89.80
2018-07-04T23:13:47.202Z,89.10
2018-07-04T23:16:34.023Z,89.50
2018-07-04T23:19:20.707Z,89.30
2018-07-04T23:22:07.447Z,89.90
2018-07-04T23:24:54.269Z,90.00
2018-07-04T23:27:41.067Z,90.10
2018-07-04T23:30:28.418Z,90.00
2018-07-04T23:33:15.010Z,90.40
2018-07-04T23:36:01.799Z,90.20
2018-07-04T23:38:48.414Z,90.60
2018-07-04T23:41:35.058Z,90.70
2018-07-04T23:44:21.719Z,90.90
2018-07-04T23:47:08.536Z,91.00
2018-07-04T23:49:55.839Z,91.00
2018-07-04T23:52:42.520Z,91.00
2018-07-04T23:55:29.141Z,90.70
2018-07-04T23:58:15.911Z,90.80
